Time;durP1;ratioP1;P1;durP2;ratioP2;P2;SDS_P1;SDS_P2;PMS_P1;PMS_P2;Temp;Humidity;BMP_temperature;BMP_pressure;BME280_temperature;BME280_humidity;BME280_pressure;Samples;Min_cycle;Max_cycle;Signal;HPM_P1;HPM_P2
2022/12/13 00:04:18;;;;;;;;;;;;;;;19.14;26.19;94919.69;10441498;28;3112;-50
2022/12/13 00:09:18;;;;;;;;;;;;;;;19.10;26.30;94920.53;10437504;28;3260;-48
2022/12/13 00:14:19;;;;;;;;;;;;;;;19.06;26.18;94914.28;10433519;28;3117;-52
2022/12/13 00:19:19;;;;;;;;;;;;;;;19.03;26.09;94914.84;10430985;28;3240;-49
2022/12/13 00:24:19;;;;;;;;;;;;;;;18.98;26.37;94918.31;10433982;28;3223;-51
2022/12/13 00:29:20;;;;;;;;;;;;;;;18.94;26.25;94912.06;10443193;28;3171;-52
2022/12/13 00:34:20;;;;;;;;;;;;;;;18.92;26.42;94911.56;10442135;28;2580;-49
2022/12/13 00:39:21;;;;;;;;;;;;;;;18.86;26.22;94899.56;10449734;28;3164;-51
2022/12/13 00:44:21;;;;;;;;;;;;;;;18.83;26.27;94902.78;10447672;28;2599;-50
2022/12/13 00:49:21;;;;;;;;;;;;;;;18.79;26.34;94899.16;10452632;28;3178;-54
2022/12/13 00:54:22;;;;;;;;;;;;;;;18.75;26.52;94903.41;10443061;28;3324;-52
2022/12/13 00:59:22;;;;;;;;;;;;;;;18.73;26.41;94902.91;10441054;28;2607;-53
2022/12/13 01:04:22;;;;;;;;;;;;;;;18.69;26.48;94907.91;10443201;28;2638;-52
2022/12/13 01:09:28;;;;;;;;;;;;;;;18.63;26.52;94906.41;10435511;28;3291;-48
2022/12/13 01:14:28;;;;;;;;;;;;;;;18.60;26.53;94903.56;10437065;28;3411;-52
2022/12/13 01:19:29;;;;;;;;;;;;;;;18.58;26.66;94888.13;10437493;28;3227;-51
2022/12/13 01:24:29;;;;;;;;;;;;;;;18.54;26.76;94891.56;10444305;28;2543;-49
2022/12/13 01:29:29;;;;;;;;;;;;;;;18.52;26.62;94888.44;10449686;28;3192;-51
2022/12/13 01:34:30;;;;;;;;;;;;;;;18.47;26.54;94886.66;10445948;28;3177;-53
2022/12/13 01:39:30;;;;;;;;;;;;;;;18.44;26.70;94883.81;10438932;28;3125;-51
2022/12/13 01:44:49;;;;;;;;;;;;;;;18.43;26.72;94880.41;10444401;28;3115;-48
2022/12/13 01:49:49;;;;;;;;;;;;;;;18.40;26.67;94869.69;10443958;28;3174;-51
2022/12/13 01:55:00;;;;;;;;;;;;;;;18.38;26.86;94853.44;10446488;28;3542;-48
2022/12/13 02:00:00;;;;;;;;;;;;;;;18.36;26.77;94852.94;10464679;28;2529;-52
2022/12/13 02:05:04;;;;;;;;;;;;;;;18.34;26.75;94845.31;10461259;28;2651;-49
2022/12/13 02:10:15;;;;;;;;;;;;;;;18.34;26.90;94849.81;10443841;28;3218;-51
2022/12/13 02:15:15;;;;;;;;;;;;;;;18.31;26.94;94845.09;10448185;28;3214;-51
2022/12/13 02:20:22;;;;;;;;;;;;;;;18.31;27.03;94832.78;10445358;28;2591;-51
2022/12/13 02:25:32;;;;;;;;;;;;;;;18.30;26.92;94833.81;10460080;28;2546;-50
2022/12/13 02:30:45;;;;;;;;;;;;;;;18.30;26.80;94823.34;10442777;28;3284;-53
2022/12/13 02:35:50;;;;;;;;;;;;;;;18.29;26.79;94815.75;10446965;28;3148;-48
2022/12/13 02:40:53;;;;;;;;;;;;;;;18.28;26.71;94811.59;10434589;28;3265;-50
2022/12/13 02:45:54;;;;;;;;;;;;;;;18.28;26.71;94807.09;10454764;28;2537;-47
2022/12/13 02:50:54;;;;;;;;;;;;;;;18.29;26.55;94810.50;10451449;28;3204;-48
2022/12/13 02:55:54;;;;;;;;;;;;;;;18.27;26.64;94789.81;10465565;28;2558;-53
2022/12/13 03:00:59;;;;;;;;;;;;;;;18.28;26.72;94782.72;10436941;28;3219;-50
2022/12/13 03:11:18;;;;;;;;;;;;;;;18.26;26.30;94777.75;10450416;28;3183;-48
2022/12/13 03:16:28;;;;;;;;;;;;;;;18.27;26.44;94775.91;10444128;28;3148;-47
2022/12/13 03:21:28;;;;;;;;;;;;;;;18.26;26.19;94779.59;10448766;28;2560;-49
2022/12/13 03:26:28;;;;;;;;;;;;;;;18.25;26.55;94783.28;10430310;28;3172;-49
2022/12/13 03:31:29;;;;;;;;;;;;;;;18.25;26.50;94784.06;10426993;28;3159;-48
2022/12/13 03:36:29;;;;;;;;;;;;;;;18.25;26.28;94786.69;10438890;28;2580;-50
2022/12/13 03:41:32;;;;;;;;;;;;;;;18.25;26.31;94784.06;10434737;28;2544;-49
2022/12/13 03:46:33;;;;;;;;;;;;;;;18.25;26.45;94784.06;10457191;28;3152;-49
2022/12/13 03:51:33;;;;;;;;;;;;;;;18.23;26.33;94775.69;10432963;28;3086;-51
2022/12/13 03:56:34;;;;;;;;;;;;;;;18.23;26.46;94765.19;10440120;28;2642;-50
2022/12/13 04:01:37;;;;;;;;;;;;;;;18.23;26.36;94765.19;10442513;28;2591;-52
2022/12/13 04:06:37;;;;;;;;;;;;;;;18.22;26.38;94760.22;10433102;28;3123;-50
2022/12/13 04:16:56;;;;;;;;;;;;;;;18.20;26.23;94754.47;10464796;28;2535;-48
2022/12/13 04:21:57;;;;;;;;;;;;;;;18.20;26.20;94752.63;10455736;28;3176;-51
2022/12/13 04:26:59;;;;;;;;;;;;;;;18.18;26.21;94759.22;10446824;28;3157;-52
2022/12/13 04:31:59;;;;;;;;;;;;;;;18.18;26.31;94761.84;10434785;28;3113;-49
2022/12/13 04:37:00;;;;;;;;;;;;;;;18.17;26.23;94757.69;10439226;28;3228;-50
2022/12/13 04:42:00;;;;;;;;;;;;;;;18.16;26.24;94753.47;10439808;28;3215;-49
2022/12/13 04:47:01;;;;;;;;;;;;;;;18.17;26.34;94760.28;10427518;28;3233;-50
2022/12/13 04:52:01;;;;;;;;;;;;;;;18.14;26.17;94752.97;10446830;28;3116;-50
2022/12/13 04:57:02;;;;;;;;;;;;;;;18.14;26.12;94752.97;10442117;28;3221;-51
2022/12/13 05:02:03;;;;;;;;;;;;;;;18.14;26.18;94745.09;10436058;28;3167;-49
2022/12/13 05:07:13;;;;;;;;;;;;;;;18.17;26.05;94741.94;10438519;28;3449;-54
2022/12/13 05:12:14;;;;;;;;;;;;;;;18.16;25.41;94737.75;10440781;28;3188;-49
2022/12/13 05:17:14;;;;;;;;;;;;;;;18.18;25.28;94730.38;10445878;28;3204;-52
2022/12/13 05:22:15;;;;;;;;;;;;;;;18.20;25.35;94728.25;10454492;28;3150;-49
2022/12/13 05:27:16;;;;;;;;;;;;;;;18.23;25.17;94722.44;10449998;28;3239;-48
2022/12/13 05:32:16;;;;;;;;;;;;;;;18.24;25.27;94716.13;10448934;28;2555;-51
2022/12/13 05:37:16;;;;;;;;;;;;;;;18.25;25.06;94720.31;10438852;28;2603;-49
2022/12/13 05:42:17;;;;;;;;;;;;;;;18.26;24.96;94717.41;10445487;28;3152;-50
2022/12/13 05:47:17;;;;;;;;;;;;;;;18.29;24.95;94723.94;10440022;28;3212;-50
2022/12/13 05:52:18;;;;;;;;;;;;;;;18.32;24.94;94723.38;10438300;28;3148;-53
2022/12/13 05:57:18;;;;;;;;;;;;;;;18.34;24.88;94726.50;10446741;28;3121;-51
2022/12/13 06:02:18;;;;;;;;;;;;;;;18.35;25.01;94720.19;10430870;28;2587;-52
2022/12/13 06:07:18;;;;;;;;;;;;;;;18.36;24.93;94716.50;10436355;28;3234;-49
2022/12/13 06:12:21;;;;;;;;;;;;;;;18.36;24.98;94716.50;10440980;28;3105;-50
2022/12/13 06:17:23;;;;;;;;;;;;;;;18.38;24.80;94722.25;10440810;28;3096;-52
2022/12/13 06:22:23;;;;;;;;;;;;;;;18.38;24.88;94725.63;10438367;28;3312;-52
2022/12/13 06:27:24;;;;;;;;;;;;;;;18.38;24.61;94730.88;10423441;28;3127;-49
2022/12/13 06:32:24;;;;;;;;;;;;;;;18.39;24.64;94726.41;10424956;28;2580;-49
2022/12/13 06:37:24;;;;;;;;;;;;;;;18.41;24.76;94735.56;10435318;28;3184;-47
2022/12/13 06:42:24;;;;;;;;;;;;;;;18.42;24.77;94737.13;10438534;28;3164;-52
2022/12/13 06:47:25;;;;;;;;;;;;;;;18.46;24.93;94742.63;10439426;28;3133;-51
2022/12/13 06:52:25;;;;;;;;;;;;;;;18.53;25.16;94735.94;10446805;28;3216;-51
2022/12/13 06:57:26;;;;;;;;;;;;;;;18.62;24.91;94742.13;10442244;28;3235;-53
2022/12/13 07:02:26;;;;;;;;;;;;;;;18.59;25.12;94740.06;10440258;28;3187;-53
2022/12/13 07:07:26;;;;;;;;;;;;;;;18.62;25.02;94754.47;10439040;28;2580;-50
2022/12/13 07:12:27;;;;;;;;;;;;;;;18.62;24.91;94754.47;10426824;28;3153;-49
2022/12/13 07:17:27;;;;;;;;;;;;;;;18.60;24.94;94753.97;10445222;28;3157;-51
2022/12/13 07:22:27;;;;;;;;;;;;;;;18.60;25.00;94753.97;10442243;28;3489;-52
2022/12/13 07:27:28;;;;;;;;;;;;;;;18.58;25.23;94764.75;10426805;28;3127;-49
2022/12/13 07:32:28;;;;;;;;;;;;;;;18.56;25.41;94766.09;10420668;28;3204;-52
2022/12/13 07:37:29;;;;;;;;;;;;;;;18.55;25.52;94751.41;10446147;28;3136;-50
2022/12/13 07:42:29;;;;;;;;;;;;;;;18.51;25.69;94751.19;10437434;28;3520;-51
2022/12/13 07:47:30;;;;;;;;;;;;;;;18.49;25.63;94761.19;10444723;28;3163;-50
2022/12/13 07:52:30;;;;;;;;;;;;;;;18.47;25.62;94755.47;10434796;28;3238;-50
2022/12/13 07:57:39;;;;;;;;;;;;;;;18.45;25.87;94768.09;10411046;28;3198;-50
2022/12/13 08:02:40;;;;;;;;;;;;;;;18.43;25.95;94770.22;10438316;28;3219;-50
2022/12/13 08:07:40;;;;;;;;;;;;;;;18.43;25.91;94766.75;10440690;28;2521;-52
2022/12/13 08:12:43;;;;;;;;;;;;;;;18.39;26.11;94763.94;10442908;28;3191;-51
2022/12/13 08:17:43;;;;;;;;;;;;;;;18.38;26.14;94761.59;10442000;28;3184;-51
2022/12/13 08:22:44;;;;;;;;;;;;;;;18.37;26.19;94757.41;10430227;28;3176;-52
2022/12/13 08:27:44;;;;;;;;;;;;;;;18.32;26.11;94747.75;10426388;28;3240;-49
2022/12/13 08:32:44;;;;;;;;;;;;;;;18.27;26.13;94752.28;10428804;28;2531;-51
2022/12/13 08:37:44;;;;;;;;;;;;;;;18.27;26.28;94752.28;10436131;28;3185;-51
2022/12/13 08:42:45;;;;;;;;;;;;;;;18.24;26.17;94758.88;10422344;28;3235;-51
2022/12/13 08:47:45;;;;;;;;;;;;;;;18.24;26.17;94768.59;10446218;28;3196;-52
2022/12/13 08:52:45;;;;;;;;;;;;;;;18.19;26.21;94768.66;10452888;28;3195;-50
2022/12/13 08:57:45;;;;;;;;;;;;;;;18.16;26.43;94764.75;10451004;28;3171;-49
2022/12/13 09:02:46;;;;;;;;;;;;;;;18.15;26.25;94772.91;10429225;28;2583;-48
2022/12/13 09:07:46;;;;;;;;;;;;;;;18.11;26.54;94777.16;10446478;28;2683;-48
2022/12/13 09:12:46;;;;;;;;;;;;;;;18.10;26.46;94775.59;10440227;28;3125;-49
2022/12/13 09:17:47;;;;;;;;;;;;;;;18.07;26.71;94766.47;10440084;28;3211;-50
2022/12/13 09:22:47;;;;;;;;;;;;;;;18.08;26.66;94760.13;10451444;28;3497;-50
2022/12/13 09:27:50;;;;;;;;;;;;;;;18.09;26.66;94758.31;10456859;28;2519;-52
2022/12/13 09:32:50;;;;;;;;;;;;;;;18.08;26.51;94757.50;10441276;28;3151;-50
2022/12/13 09:37:50;;;;;;;;;;;;;;;18.10;26.68;94765.09;10437390;28;3296;-54
2022/12/13 09:42:53;;;;;;;;;;;;;;;18.07;26.76;94758.59;10429230;28;2691;-52
2022/12/13 09:47:53;;;;;;;;;;;;;;;18.12;26.48;94747.22;10457645;28;3148;-52
2022/12/13 09:52:53;;;;;;;;;;;;;;;18.11;26.58;94749.09;10447604;28;2588;-50
2022/12/13 09:57:54;;;;;;;;;;;;;;;18.13;26.54;94748.81;10438405;28;3211;-50
2022/12/13 10:02:56;;;;;;;;;;;;;;;18.16;26.41;94742.97;10424608;28;3169;-48
2022/12/13 10:07:57;;;;;;;;;;;;;;;18.17;26.47;94739.31;10464365;28;3105;-53
2022/12/13 10:12:59;;;;;;;;;;;;;;;18.14;26.48;94734.63;10432340;28;3191;-53
2022/12/13 10:18:00;;;;;;;;;;;;;;;18.20;26.37;94734.28;10437795;28;3144;-50
2022/12/13 10:23:04;;;;;;;;;;;;;;;18.22;26.36;94728.75;10449220;28;3516;-51
2022/12/13 10:28:05;;;;;;;;;;;;;;;18.19;26.33;94729.31;10438928;28;3149;-54
2022/12/13 10:33:05;;;;;;;;;;;;;;;18.22;26.23;94720.88;10448409;28;3118;-51
2022/12/13 10:38:09;;;;;;;;;;;;;;;18.19;26.33;94711.75;10441809;28;3183;-54
2022/12/13 10:43:13;;;;;;;;;;;;;;;18.21;26.24;94714.06;10437249;28;3182;-54
2022/12/13 10:48:17;;;;;;;;;;;;;;;18.20;26.28;94708.03;10437547;28;3234;-53
2022/12/13 10:53:19;;;;;;;;;;;;;;;18.24;26.36;94703.78;10447259;28;2606;-52
2022/12/13 10:58:20;;;;;;;;;;;;;;;18.23;26.28;94702.25;10436850;28;3176;-53
2022/12/13 11:03:27;;;;;;;;;;;;;;;18.27;26.17;94703.25;10444301;28;3164;-54
2022/12/13 11:08:29;;;;;;;;;;;;;;;18.25;26.33;94700.13;10435432;28;3152;-50
2022/12/13 11:13:33;;;;;;;;;;;;;;;18.27;26.34;94702.44;10445904;28;1887;-53
2022/12/13 11:18:37;;;;;;;;;;;;;;;18.26;26.33;94696.41;10432156;28;2088;-52
2022/12/13 11:23:44;;;;;;;;;;;;;;;18.28;26.26;94693.53;10445849;28;1966;-53
2022/12/13 11:28:56;;;;;;;;;;;;;;;18.29;26.31;94692.47;10456867;28;1966;-52
2022/12/13 11:33:59;;;;;;;;;;;;;;;18.30;26.27;94691.41;10463998;28;1896;-51
2022/12/13 11:39:09;;;;;;;;;;;;;;;18.33;26.32;94675.88;10442154;28;1982;-54
2022/12/13 11:44:11;;;;;;;;;;;;;;;18.32;26.35;94684.03;10454640;28;1938;-55
2022/12/13 11:49:16;;;;;;;;;;;;;;;18.31;26.26;94671.97;10446143;28;1903;-50
2022/12/13 11:54:25;;;;;;;;;;;;;;;18.31;26.34;94669.34;10453258;28;1899;-53
2022/12/13 11:59:34;;;;;;;;;;;;;;;18.32;26.35;94681.41;10459869;28;1986;-52
2022/12/13 12:04:38;;;;;;;;;;;;;;;18.30;26.31;94676.41;10441767;28;2042;-53
2022/12/13 12:09:40;;;;;;;;;;;;;;;18.31;26.29;94674.59;10432086;28;2092;-52
2022/12/13 12:14:57;;;;;;;;;;;;;;;18.32;26.32;94673.53;10441320;28;1934;-53
2022/12/13 12:19:57;;;;;;;;;;;;;;;18.31;26.33;94657.00;10462736;28;1975;-52
2022/12/13 12:25:12;;;;;;;;;;;;;;;18.31;26.40;94662.25;10442327;28;1994;-52
2022/12/13 12:30:15;;;;;;;;;;;;;;;18.34;26.38;94668.78;10459352;28;1985;-54
2022/12/13 12:35:30;;;;;;;;;;;;;;;18.34;26.42;94674.03;10474345;28;1786;-51
2022/12/13 12:40:49;;;;;;;;;;;;;;;18.37;26.43;94660.31;10462717;28;1975;-52
2022/12/13 12:45:56;;;;;;;;;;;;;;;18.33;26.41;94659.34;10448068;28;1991;-53
2022/12/13 12:51:00;;;;;;;;;;;;;;;18.35;26.53;94663.25;10462042;28;1921;-52
2022/12/13 12:56:19;;;;;;;;;;;;;;;18.35;26.46;94658.00;10453703;28;1946;-53
2022/12/13 13:01:38;;;;;;;;;;;;;;;18.34;26.40;94666.91;10442248;28;1946;-53
2022/12/13 13:06:46;;;;;;;;;;;;;;;18.32;26.54;94674.28;10441721;28;1979;-52
2022/12/13 13:11:46;;;;;;;;;;;;;;;18.34;26.45;94682.66;10462103;28;2057;-52
2022/12/13 13:16:47;;;;;;;;;;;;;;;18.31;26.55;94678.00;10462515;28;1911;-53
2022/12/13 13:21:54;;;;;;;;;;;;;;;18.34;26.49;94674.78;10446397;28;1906;-53
2022/12/13 13:26:57;;;;;;;;;;;;;;;18.34;26.52;94687.16;10453544;28;1959;-53
2022/12/13 13:32:03;;;;;;;;;;;;;;;18.34;26.62;94685.28;10473351;28;2243;-52
2022/12/13 13:37:24;;;;;;;;;;;;;;;18.31;26.47;94687.69;10445196;28;1875;-52
2022/12/13 13:42:25;;;;;;;;;;;;;;;18.31;26.69;94679.84;10454323;28;2005;-53
2022/12/13 13:47:25;;;;;;;;;;;;;;;18.31;26.71;94693.75;10432839;28;2040;-49
2022/12/13 13:52:26;;;;;;;;;;;;;;;18.30;27.00;94686.16;10436210;28;1888;-53
2022/12/13 13:57:56;;;;;;;;;;;;;;;18.31;26.76;94701.59;10456940;28;1923;-51
2022/12/13 14:03:05;;;;;;;;;;;;;;;18.29;26.94;94689.84;10399613;28;1950;-53
2022/12/13 14:08:09;;;;;;;;;;;;;;;18.27;26.78;94681.47;10444472;28;1943;-53
2022/12/13 14:13:39;;;;;;;;;;;;;;;18.26;26.66;94682.53;10466076;28;2007;-53
2022/12/13 14:18:46;;;;;;;;;;;;;;;18.24;26.72;94680.19;10441616;28;1914;-50
2022/12/13 14:24:27;;;;;;;;;;;;;;;18.22;26.70;94684.94;10467200;28;1701;-50
2022/12/13 14:29:32;;;;;;;;;;;;;;;18.22;26.72;94684.94;10366182;28;1520;-52
2022/12/13 14:34:32;;;;;;;;;;;;;;;18.24;26.60;94690.69;10445953;28;1157;-54
2022/12/13 14:39:35;;;;;;;;;;;;;;;18.28;26.70;94686.41;10456087;28;1929;-52
2022/12/13 14:44:36;;;;;;;;;;;;;;;18.36;26.50;94690.28;10443910;28;1967;-54
2022/12/13 14:49:40;;;;;;;;;;;;;;;18.36;26.47;94700.75;10444424;28;2128;-52
2022/12/13 14:54:46;;;;;;;;;;;;;;;18.41;26.49;94693.59;10445545;28;2023;-54
2022/12/13 14:59:47;;;;;;;;;;;;;;;18.45;26.40;94693.81;10445379;28;1971;-54
2022/12/13 15:04:47;;;;;;;;;;;;;;;18.52;26.33;94686.38;10435950;28;1981;-53
2022/12/13 15:09:48;;;;;;;;;;;;;;;18.51;26.34;94688.22;10431048;28;2138;-52
2022/12/13 15:14:54;;;;;;;;;;;;;;;18.52;26.04;94689.00;10440717;28;2065;-55
2022/12/13 15:19:55;;;;;;;;;;;;;;;18.54;26.23;94686.88;10436802;28;1994;-52
2022/12/13 15:24:55;;;;;;;;;;;;;;;18.55;26.30;94688.41;10429421;28;2017;-49
2022/12/13 15:29:55;;;;;;;;;;;;;;;18.54;26.24;94695.53;10434041;28;1941;-50
2022/12/13 15:34:57;;;;;;;;;;;;;;;18.55;26.19;94683.16;10448399;28;1959;-54
2022/12/13 15:39:58;;;;;;;;;;;;;;;18.62;26.17;94681.75;10425337;28;1986;-53
2022/12/13 15:44:59;;;;;;;;;;;;;;;18.60;25.94;94678.66;10438034;28;1978;-51
2022/12/13 15:50:00;;;;;;;;;;;;;;;18.61;26.07;94676.78;10432046;28;1971;-49
2022/12/13 15:55:01;;;;;;;;;;;;;;;18.60;25.91;94676.03;10421008;28;1970;-52
2022/12/13 16:00:01;;;;;;;;;;;;;;;18.60;25.91;94675.22;10446679;28;2121;-54
2022/12/13 16:05:06;;;;;;;;;;;;;;;18.58;25.72;94675.53;10431677;28;2231;-52
2022/12/13 16:10:06;;;;;;;;;;;;;;;18.65;25.98;94664.63;10427379;28;1978;-53
2022/12/13 16:15:18;;;;;;;;;;;;;;;18.65;25.84;94667.25;10464752;28;2051;-53
2022/12/13 16:20:19;;;;;;;;;;;;;;;18.66;25.65;94661.75;10470695;28;1985;-54
2022/12/13 16:25:20;;;;;;;;;;;;;;;18.66;25.67;94655.72;10455966;28;1846;-53
2022/12/13 16:30:21;;;;;;;;;;;;;;;18.67;25.64;94660.66;10443718;28;1843;-53
2022/12/13 16:35:31;;;;;;;;;;;;;;;18.71;25.89;94653.00;10438805;28;2068;-51
2022/12/13 16:40:32;;;;;;;;;;;;;;;18.73;25.74;94648.25;10421656;28;1950;-56
2022/12/13 16:45:39;;;;;;;;;;;;;;;18.83;25.94;94648.09;10420338;28;1944;-56
2022/12/13 16:50:43;;;;;;;;;;;;;;;18.88;26.11;94639.31;10451942;28;1980;-59
2022/12/13 16:55:44;;;;;;;;;;;;;;;18.92;26.04;94627.94;10424140;28;2042;-59
2022/12/13 17:00:44;;;;;;;;;;;;;;;18.97;25.77;94627.88;10421671;28;1988;-54
2022/12/13 17:05:44;;;;;;;;;;;;;;;19.03;26.06;94637.22;10422685;28;1980;-60
2022/12/13 17:10:45;;;;;;;;;;;;;;;19.09;26.36;94630.03;10454541;28;2112;-53
2022/12/13 17:15:45;;;;;;;;;;;;;;;19.01;24.65;94625.44;10420668;28;2067;-53
2022/12/13 17:20:45;;;;;;;;;;;;;;;18.91;24.32;94623.00;10446189;28;2054;-51
2022/12/13 17:25:45;;;;;;;;;;;;;;;18.95;24.51;94622.13;10435471;28;2081;-53
2022/12/13 17:30:46;;;;;;;;;;;;;;;19.07;24.27;94627.69;10428319;28;1940;-52
2022/12/13 17:35:46;;;;;;;;;;;;;;;19.10;24.20;94621.09;10434289;28;2001;-53
2022/12/13 17:40:51;;;;;;;;;;;;;;;19.18;25.08;94615.94;10432299;28;2103;-53
2022/12/13 17:45:55;;;;;;;;;;;;;;;19.29;24.14;94606.00;10445268;28;2028;-53
2022/12/13 17:50:55;;;;;;;;;;;;;;;19.38;24.42;94607.69;10441036;28;2066;-53
2022/12/13 17:55:56;;;;;;;;;;;;;;;19.46;24.11;94600.97;10444009;28;1951;-52
2022/12/13 18:00:56;;;;;;;;;;;;;;;19.53;23.83;94609.25;10446407;28;1954;-55
2022/12/13 18:05:57;;;;;;;;;;;;;;;19.61;23.68;94610.38;10447121;28;1970;-53
2022/12/13 18:10:57;;;;;;;;;;;;;;;19.70;24.53;94604.13;10441141;28;1855;-53
2022/12/13 18:15:58;;;;;;;;;;;;;;;19.72;23.71;94588.09;10445663;28;1896;-52
2022/12/13 18:21:09;;;;;;;;;;;;;;;19.81;23.96;94605.50;10438546;28;1975;-52
2022/12/13 18:26:10;;;;;;;;;;;;;;;19.92;23.26;94598.94;10435101;28;1918;-51
2022/12/13 18:31:14;;;;;;;;;;;;;;;19.99;23.74;94591.41;10441613;28;1891;-52
2022/12/13 18:36:15;;;;;;;;;;;;;;;20.07;24.28;94595.19;10441050;28;2325;-52
2022/12/13 18:41:19;;;;;;;;;;;;;;;20.10;23.66;94591.97;10435932;28;1970;-52
2022/12/13 18:46:20;;;;;;;;;;;;;;;20.21;23.30;94599.38;10429947;28;2016;-54
2022/12/13 18:51:20;;;;;;;;;;;;;;;20.25;23.39;94581.13;10438067;28;1946;-54
2022/12/13 18:56:21;;;;;;;;;;;;;;;20.35;24.46;94577.47;10442459;28;2092;-48
2022/12/13 19:01:21;;;;;;;;;;;;;;;20.42;23.26;94562.81;10434460;28;2074;-54
2022/12/13 19:06:22;;;;;;;;;;;;;;;20.45;22.88;94562.22;10424613;28;2298;-53
2022/12/13 19:11:24;;;;;;;;;;;;;;;20.51;22.81;94561.00;10432063;28;2005;-52
2022/12/13 19:16:25;;;;;;;;;;;;;;;20.57;23.18;94559.81;10445796;28;2043;-48
2022/12/13 19:21:26;;;;;;;;;;;;;;;20.62;23.27;94567.59;10443534;28;2162;-54
2022/12/13 19:26:26;;;;;;;;;;;;;;;20.65;22.42;94548.53;10436028;28;1956;-49
2022/12/13 19:31:27;;;;;;;;;;;;;;;20.71;22.69;94555.22;10428359;28;1981;-52
2022/12/13 19:36:27;;;;;;;;;;;;;;;20.76;22.70;94544.56;10437879;28;1879;-54
2022/12/13 19:41:28;;;;;;;;;;;;;;;20.79;22.64;94541.31;10437723;28;2105;-52
2022/12/13 19:46:28;;;;;;;;;;;;;;;20.83;22.58;94531.75;10419829;28;1982;-51
2022/12/13 19:51:29;;;;;;;;;;;;;;;20.88;23.57;94525.56;10441217;28;1989;-54
2022/12/13 19:56:29;;;;;;;;;;;;;;;20.81;22.65;94518.09;10440261;28;2106;-50
2022/12/13 20:01:30;;;;;;;;;;;;;;;20.72;22.52;94525.19;10429415;28;2147;-53
2022/12/13 20:06:32;;;;;;;;;;;;;;;20.68;26.26;94526.88;10412629;28;2012;-50
2022/12/13 20:11:33;;;;;;;;;;;;;;;20.56;26.77;94504.81;10427686;28;1966;-53
2022/12/13 20:16:33;;;;;;;;;;;;;;;20.47;27.04;94525.84;10427246;28;1958;-53
2022/12/13 20:21:34;;;;;;;;;;;;;;;20.39;27.22;94525.78;10427124;28;1927;-51
2022/12/13 20:26:34;;;;;;;;;;;;;;;20.33;26.89;94530.41;10420793;28;2016;-52
2022/12/13 20:31:36;;;;;;;;;;;;;;;20.56;26.35;94524.03;10435104;28;1943;-52
2022/12/13 20:36:37;;;;;;;;;;;;;;;20.60;26.23;94519.72;10433756;28;1895;-49
2022/12/13 20:41:37;;;;;;;;;;;;;;;20.62;26.23;94508.88;10444013;28;1965;-51
2022/12/13 20:46:38;;;;;;;;;;;;;;;20.64;26.04;94501.44;10445335;28;2062;-52
2022/12/13 20:51:38;;;;;;;;;;;;;;;20.62;26.34;94491.22;10448903;28;1878;-52
2022/12/13 20:56:39;;;;;;;;;;;;;;;20.62;26.44;94479.91;10443936;28;1975;-50
2022/12/13 21:01:39;;;;;;;;;;;;;;;20.58;26.23;94460.53;10452056;28;2300;-50
2022/12/13 21:06:40;;;;;;;;;;;;;;;20.55;26.45;94456.66;10445381;28;2479;-53
2022/12/13 21:11:45;;;;;;;;;;;;;;;20.51;26.20;94454.94;10453147;28;2005;-52
2022/12/13 21:16:46;;;;;;;;;;;;;;;20.47;26.02;94440.81;10449022;28;1981;-50
2022/12/13 21:21:47;;;;;;;;;;;;;;;20.41;26.38;94424.41;10468959;28;1911;-50
2022/12/13 21:26:48;;;;;;;;;;;;;;;20.37;26.31;94420.03;10472660;28;2491;-51
2022/12/13 21:31:52;;;;;;;;;;;;;;;20.32;26.02;94426.19;10463695;28;2148;-52
2022/12/13 21:36:52;;;;;;;;;;;;;;;20.26;26.08;94420.31;10452540;28;1973;-52
2022/12/13 21:41:53;;;;;;;;;;;;;;;20.24;26.04;94429.56;10463050;28;1981;-50
2022/12/13 21:46:53;;;;;;;;;;;;;;;20.18;25.99;94436.81;10463131;28;1962;-51
2022/12/13 21:51:54;;;;;;;;;;;;;;;20.15;26.04;94420.84;10457713;28;1970;-47
2022/12/13 22:02:14;;;;;;;;;;;;;;;20.06;25.97;94412.13;10434465;28;2164;-53
2022/12/13 22:07:18;;;;;;;;;;;;;;;20.03;26.18;94412.75;10437471;28;1959;-54
2022/12/13 22:12:18;;;;;;;;;;;;;;;20.00;26.10;94408.06;10454919;28;2083;-50
2022/12/13 22:17:19;;;;;;;;;;;;;;;19.94;26.15;94409.28;10445590;28;2084;-50
2022/12/13 22:22:19;;;;;;;;;;;;;;;19.90;26.05;94403.06;10444968;28;2129;-53
2022/12/13 22:27:22;;;;;;;;;;;;;;;19.87;26.11;94377.38;10431475;28;1931;-48
2022/12/13 22:32:26;;;;;;;;;;;;;;;19.82;26.06;94396.69;10434583;28;1946;-48
2022/12/13 22:37:26;;;;;;;;;;;;;;;19.79;26.23;94391.25;10449422;28;2123;-53
2022/12/13 22:42:26;;;;;;;;;;;;;;;19.75;26.02;94408.69;10436418;28;2121;-52
2022/12/13 22:47:27;;;;;;;;;;;;;;;19.72;26.15;94383.03;10440392;28;1961;-52
2022/12/13 22:52:28;;;;;;;;;;;;;;;19.68;26.18;94374.19;10413890;28;1912;-52
2022/12/13 22:57:28;;;;;;;;;;;;;;;19.64;25.83;94381.13;10434696;28;1973;-50
2022/12/13 23:02:28;;;;;;;;;;;;;;;19.62;26.13;94375.38;10423141;28;2061;-53
2022/12/13 23:07:29;;;;;;;;;;;;;;;19.58;26.14;94359.41;10418709;28;1958;-51
2022/12/13 23:17:48;;;;;;;;;;;;;;;19.49;26.09;94335.69;10428811;28;2163;-51
2022/12/13 23:22:48;;;;;;;;;;;;;;;19.47;26.11;94314.19;10429093;28;2113;-50
2022/12/13 23:27:49;;;;;;;;;;;;;;;19.44;25.92;94345.56;10428774;28;2046;-52
2022/12/13 23:32:49;;;;;;;;;;;;;;;19.40;26.01;94340.16;10419127;28;2058;-50
2022/12/13 23:37:50;;;;;;;;;;;;;;;19.36;25.99;94328.69;10430528;28;2026;-51
2022/12/13 23:42:51;;;;;;;;;;;;;;;19.33;26.07;94310.09;10447857;28;1951;-52
2022/12/13 23:47:51;;;;;;;;;;;;;;;19.31;26.09;94314.84;10445143;28;1809;-49
2022/12/13 23:52:52;;;;;;;;;;;;;;;19.27;26.05;94296.28;10444404;28;1791;-50
2022/12/13 23:57:52;;;;;;;;;;;;;;;19.24;25.72;94275.88;10438596;28;1927;-53
